createdAt,value
2023-01-04T00:01:55.155Z,6.00
2023-01-04T00:39:12.150Z,9.90
2023-01-04T01:16:53.494Z,7.60
2023-01-04T01:35:07.536Z,5.10
2023-01-04T01:53:44.242Z,8.00
2023-01-04T02:12:23.399Z,6.50
2023-01-04T02:31:01.859Z,6.10
2023-01-04T02:49:41.375Z,8.30
2023-01-04T03:08:21.463Z,9.60
2023-01-04T03:26:59.605Z,9.40
2023-01-04T03:45:38.190Z,14.90
2023-01-04T04:04:16.740Z,11.70
2023-01-04T04:22:55.193Z,7.60
2023-01-04T04:41:34.874Z,9.80
2023-01-04T05:00:13.189Z,11.90
2023-01-04T05:18:53.092Z,8.90
2023-01-04T05:37:32.444Z,11.80
2023-01-04T05:56:13.867Z,13.60
2023-01-04T06:14:52.485Z,15.20
2023-01-04T06:33:30.305Z,5.90
2023-01-04T06:52:09.972Z,10.30
2023-01-04T07:10:50.023Z,8.60
2023-01-04T07:29:29.548Z,13.20
2023-01-04T07:48:09.881Z,7.50
2023-01-04T08:06:50.843Z,6.20
2023-01-04T08:25:32.713Z,11.80
2023-01-04T08:44:13.082Z,9.60
2023-01-04T09:02:55.830Z,13.20
2023-01-04T09:21:32.702Z,7.00
2023-01-04T09:59:06.204Z,8.20
2023-01-04T10:36:44.937Z,4.00
2023-01-04T10:55:35.775Z,3.40
2023-01-04T11:14:23.359Z,4.00
2023-01-04T11:33:09.150Z,3.70
2023-01-04T11:51:52.681Z,5.00
2023-01-04T12:10:30.809Z,3.20
2023-01-04T12:47:53.399Z,3.20
2023-01-04T13:06:36.177Z,2.30
2023-01-04T13:25:10.968Z,2.30
2023-01-04T14:21:10.950Z,4.00
2023-01-04T14:39:35.884Z,2.60
2023-01-04T15:16:33.056Z,6.90
2023-01-04T15:53:44.504Z,6.20
2023-01-04T16:12:20.653Z,8.00
2023-01-04T16:30:58.842Z,10.10
2023-01-04T17:08:19.653Z,8.60
2023-01-04T17:26:56.312Z,7.40
2023-01-04T17:45:34.051Z,9.70
2023-01-04T18:04:12.978Z,7.00
2023-01-04T18:22:52.345Z,9.80
2023-01-04T18:41:28.501Z,8.20
2023-01-04T19:18:46.418Z,8.30
2023-01-04T19:37:21.977Z,6.60
2023-01-04T19:55:59.929Z,6.10
2023-01-04T20:14:40.502Z,6.50
2023-01-04T20:33:18.227Z,4.90
2023-01-04T21:10:36.299Z,4.00
2023-01-04T21:47:49.703Z,8.70
2023-01-04T22:06:27.892Z,3.70
2023-01-04T22:25:07.846Z,3.90
2023-01-04T23:02:27.832Z,4.00
2023-01-04T23:21:09.111Z,2.60
2023-01-04T23:39:45.414Z,3.50
2023-01-04T23:58:28.326Z,2.80
